Time;durP1;ratioP1;P1;durP2;ratioP2;P2;SDS_P1;SDS_P2;PMS_P1;PMS_P2;Temp;Humidity;BMP_temperature;BMP_pressure;BME280_temperature;BME280_humidity;BME280_pressure;Samples;Min_cycle;Max_cycle;Signal;HPM_P1;HPM_P2
2022/05/28 00:02:18;;;;;;;27.25;5.25;;;;;;;;;;4926893;29;20340;-91
2022/05/28 00:04:46;;;;;;;26.75;5.05;;;;;;;20.95;100.00;94178.03;4942147;29;20039;-90
2022/05/28 00:07:11;;;;;;;25.35;4.47;;;;;;;20.89;100.00;94174.06;4927116;29;20039;-90
2022/05/28 00:09:36;;;;;;;32.53;5.60;;;;;;;20.81;100.00;94170.41;4926880;29;20089;-90
2022/05/28 00:12:02;;;;;;;22.70;4.80;;;;;;;20.52;100.00;94177.56;4942475;29;20428;-90
2022/05/28 00:14:27;;;;;;;25.83;4.70;;;;;;;20.40;100.00;94164.25;4926441;29;20035;-90
2022/05/28 00:16:54;;;;;;;19.00;4.40;;;;;;;19.85;100.00;94157.28;4942334;29;20027;-90
2022/05/28 00:19:19;;;;;;;24.45;5.00;;;;;;;19.66;100.00;94154.38;4942509;29;20043;-90
2022/05/28 00:21:45;;;;;;;16.42;4.68;;;;;;;19.62;100.00;94149.69;4926376;29;20042;-91
2022/05/28 00:24:10;;;;;;;16.30;4.47;;;;;;;19.60;100.00;94149.25;4941933;29;20035;-90
2022/05/28 00:26:36;;;;;;;33.30;5.18;;;;;;;19.62;100.00;94141.72;4941915;29;20039;-91
2022/05/28 00:29:02;;;;;;;18.88;5.22;;;;;;;19.43;100.00;94142.25;4926294;29;20033;-90
2022/05/28 00:31:27;;;;;;;16.10;4.90;;;;;;;19.43;100.00;94139.59;4926565;29;20122;-91
2022/05/28 00:33:52;;;;;;;20.50;4.70;;;;;;;19.41;100.00;94135.72;4945353;28;20082;-90
2022/05/28 00:36:18;;;;;;;12.48;4.88;;;;;;;19.27;100.00;94139.47;4943359;29;20087;-91
2022/05/28 00:38:44;;;;;;;21.02;4.93;;;;;;;19.46;100.00;94132.84;4943594;29;20113;-90
2022/05/28 00:41:11;;;;;;;27.35;5.70;;;;;;;19.40;100.00;94131.53;4942053;29;20357;-90
2022/05/28 00:43:38;;;;;;;20.48;5.00;;;;;;;19.37;100.00;94130.28;4931419;28;20090;-90
2022/05/28 00:46:07;;;;;;;25.50;6.28;;;;;;;19.46;100.00;94128.31;4944892;28;20101;-90
2022/05/28 00:48:36;;;;;;;26.75;6.53;;;;;;;19.49;100.00;94122.34;4944843;28;20089;-90
2022/05/28 00:51:05;;;;;;;29.00;5.78;;;;;;;19.54;100.00;94125.88;4943778;28;20090;-90
2022/05/28 00:53:32;;;;;;;23.13;5.97;;;;;;;19.45;100.00;94118.03;4951541;28;20034;-90
2022/05/28 00:55:58;;;;;;;23.08;5.82;;;;;;;19.29;100.00;94117.88;4944636;28;20069;-90
2022/05/28 00:58:23;;;;;;;24.83;6.55;;;;;;;18.93;100.00;94120.06;4960587;28;20054;-91
2022/05/28 01:00:48;;;;;;;27.08;6.75;;;;;;;18.88;100.00;94112.31;4977956;28;20066;-90
2022/05/28 01:03:31;;;;;;;27.75;6.70;;;;;;;18.86;100.00;94115.28;4960649;28;20089;-90
2022/05/28 01:06:14;;;;;;;23.13;7.03;;;;;;;18.81;100.00;94109.41;4944597;28;20444;-90
2022/05/28 01:09:05;;;;;;;22.55;7.53;;;;;;;18.78;100.00;94105.53;4944819;28;20105;-90
2022/05/28 01:11:45;;;;;;;35.38;8.05;;;;;;;18.70;100.00;94093.88;4960904;28;20038;-90
2022/05/28 01:14:21;;;;;;;23.65;7.30;;;;;;;18.62;100.00;94100.03;4944970;28;20038;-90
2022/05/28 01:16:53;;;;;;;32.40;8.18;;;;;;;18.49;100.00;94093.91;4960492;28;20029;-90
2022/05/28 01:19:19;;;;;;;24.05;7.32;;;;;;;18.71;100.00;94095.44;4960948;28;20027;-90
2022/05/28 01:22:04;;;;;;;14.63;5.38;;;;;;;18.76;100.00;94092.56;4960758;28;20348;-90
2022/05/28 01:24:52;;;;;;;25.83;6.35;;;;;;;18.67;100.00;94091.09;4960713;28;20026;-90
2022/05/28 01:27:23;;;;;;;16.90;5.60;;;;;;;18.67;100.00;94091.88;4960624;28;20034;-90
2022/05/28 01:29:52;;;;;;;22.63;6.22;;;;;;;18.67;100.00;94091.88;4960716;28;20030;-90
2022/05/28 01:32:19;;;;;;;21.02;6.95;;;;;;;18.84;100.00;94090.94;4944889;28;20345;-90
2022/05/28 01:34:45;;;;;;;23.35;6.85;;;;;;;18.94;100.00;94085.22;4944496;28;20034;-90
2022/05/28 01:37:11;;;;;;;25.35;7.13;;;;;;;18.93;100.00;94080.25;4960648;28;20039;-90
2022/05/28 01:39:39;;;;;;;22.27;6.63;;;;;;;18.86;100.00;94080.00;4944620;28;20049;-90
2022/05/28 01:42:06;;;;;;;23.77;7.35;;;;;;;18.77;100.00;94074.78;4944479;28;20030;-90
2022/05/28 01:44:32;;;;;;;24.77;7.32;;;;;;;18.70;100.00;94074.53;4944325;28;20038;-90
2022/05/28 01:46:57;;;;;;;23.85;7.53;;;;;;;18.66;100.00;94074.41;4944320;28;20432;-90
2022/05/28 01:49:23;;;;;;;18.17;6.75;;;;;;;18.55;100.00;94066.06;4944424;28;20070;-90
2022/05/28 01:51:54;;;;;;;17.88;6.85;;;;;;;18.58;100.00;94062.78;4960613;28;20068;-90
2022/05/28 01:54:23;;;;;;;24.88;6.80;;;;;;;18.73;100.00;94063.28;4960238;28;20093;-90
2022/05/28 01:56:51;;;;;;;27.60;6.13;;;;;;;18.71;100.00;94060.16;4960327;28;20109;-90
2022/05/28 01:59:20;;;;;;;27.00;6.70;;;;;;;18.71;100.00;94060.16;4944663;28;20058;-90
2022/05/28 02:01:46;;;;;;;29.00;7.47;;;;;;;18.77;100.00;94056.97;4944332;28;20446;-90
2022/05/28 02:04:12;;;;;;;23.30;7.60;;;;;;;18.71;100.00;94052.19;4944346;28;20026;-90
2022/05/28 02:06:39;;;;;;;20.65;5.95;;;;;;;18.69;100.00;94041.91;4944255;28;20125;-90
2022/05/28 02:09:06;;;;;;;27.73;6.00;;;;;;;18.83;100.00;94046.16;4944272;28;20034;-91
2022/05/28 02:12:07;;;;;;;22.60;6.13;;;;;;;18.92;100.00;94041.53;4944621;28;20058;-90
2022/05/28 02:15:06;;;;;;;17.48;6.55;;;;;;;18.92;100.00;94042.31;4927794;28;20158;-90
2022/05/28 02:17:34;;;;;;;23.90;6.30;;;;;;;18.78;100.00;94036.53;4981056;28;20027;-90
2022/05/28 02:20:19;;;;;;;23.73;6.28;;;;;;;18.79;100.00;94038.06;4947657;28;20031;-90
2022/05/28 02:22:50;;;;;;;25.80;5.85;;;;;;;18.85;100.00;94031.44;4963476;28;20379;-89
2022/05/28 02:25:29;;;;;;;20.17;5.85;;;;;;;18.86;100.00;94027.69;4947926;28;20039;-90
2022/05/28 02:27:56;;;;;;;17.98;4.75;;;;;;;18.86;100.00;94027.69;4963491;28;20034;-90
2022/05/28 02:30:21;;;;;;;27.67;5.55;;;;;;;18.68;100.00;94029.75;4963220;28;20042;-90
2022/05/28 02:32:47;;;;;;;24.83;5.50;;;;;;;18.50;100.00;94026.47;4947407;28;20031;-90
2022/05/28 02:35:13;;;;;;;22.75;5.97;;;;;;;18.43;100.00;94028.88;4963067;28;20030;-90
2022/05/28 02:37:39;;;;;;;30.60;5.68;;;;;;;18.33;100.00;94038.00;4947490;28;20033;-90
2022/05/28 02:40:05;;;;;;;23.48;5.32;;;;;;;18.31;100.00;94027.72;4963122;28;20121;-90
2022/05/28 02:42:32;;;;;;;18.73;4.63;;;;;;;18.32;100.00;94031.16;4946960;28;20528;-90
2022/05/28 02:44:58;;;;;;;19.08;4.32;;;;;;;18.32;100.00;94031.16;4963034;28;20330;-90
2022/05/28 02:47:23;;;;;;;16.70;4.47;;;;;;;18.30;100.00;94033.34;4963284;28;20045;-90
2022/05/28 02:49:49;;;;;;;26.42;5.35;;;;;;;18.36;100.00;94029.38;4963161;28;20081;-89
2022/05/28 02:52:14;;;;;;;25.67;5.05;;;;;;;18.44;100.00;94028.56;4963257;28;20125;-90
2022/05/28 02:54:40;;;;;;;29.13;5.53;;;;;;;18.27;100.00;94026.06;4947004;28;20125;-90
2022/05/28 02:57:05;;;;;;;21.40;4.47;;;;;;;18.28;100.00;94025.72;4963033;28;20049;-90
2022/05/28 02:59:31;;;;;;;27.42;5.03;;;;;;;18.18;100.00;94029.53;4962805;28;20034;-89
2022/05/28 03:01:57;;;;;;;23.67;4.18;;;;;;;18.29;100.00;94026.50;4963022;28;20031;-89
2022/05/28 03:04:22;;;;;;;21.85;4.40;;;;;;;18.41;100.00;94018.59;4946846;28;20030;-89
2022/05/28 03:06:48;;;;;;;23.83;4.57;;;;;;;18.54;100.00;94022.06;4980032;28;20031;-89
2022/05/28 03:09:15;;;;;;;24.92;4.63;;;;;;;18.56;100.00;94019.09;4946721;28;20451;-90
2022/05/28 03:11:41;;;;;;;15.02;3.85;;;;;;;18.49;100.00;94015.09;4962907;28;20129;-90
2022/05/28 03:14:06;;;;;;;29.02;4.53;;;;;;;18.39;100.00;94012.84;4979597;28;20121;-90
2022/05/28 03:16:32;;;;;;;22.63;4.50;;;;;;;18.05;100.00;94019.97;4946742;28;20048;-90
2022/05/28 03:18:57;;;;;;;12.60;4.13;;;;;;;18.16;100.00;94018.47;4946645;28;20027;-90
2022/05/28 03:21:23;;;;;;;21.63;4.38;;;;;;;18.09;100.00;94007.63;4962448;28;20447;-89
2022/05/28 03:23:48;;;;;;;22.40;4.55;;;;;;;18.11;100.00;94004.63;4979944;28;20030;-90
2022/05/28 03:26:19;;;;;;;28.45;4.88;;;;;;;18.32;100.00;94009.94;4962127;28;20070;-89
2022/05/28 03:28:45;;;;;;;28.20;4.70;;;;;;;18.50;100.00;93999.94;4962566;28;20031;-90
2022/05/28 03:31:11;;;;;;;33.88;4.53;;;;;;;18.70;100.00;94005.53;4946386;28;20047;-90
2022/05/28 03:33:36;;;;;;;26.17;4.45;;;;;;;18.70;100.00;94001.00;4962064;28;20042;-90
2022/05/28 03:36:02;;;;;;;33.05;5.63;;;;;;;18.58;100.00;93993.00;4962116;28;20026;-90
2022/05/28 03:38:28;;;;;;;20.08;4.75;;;;;;;18.45;100.00;93995.63;4946475;28;20030;-89
2022/05/28 03:40:53;;;;;;;23.55;4.70;;;;;;;18.39;100.00;93996.94;4962647;28;20065;-90
2022/05/28 03:43:19;;;;;;;32.75;5.28;;;;;;;18.23;100.00;93994.88;4955416;29;20031;-89
2022/05/28 03:45:44;;;;;;;15.82;4.85;;;;;;;18.01;100.00;93997.81;4957105;28;20039;-90
2022/05/28 03:48:11;;;;;;;20.27;4.35;;;;;;;18.12;100.00;93992.94;4960677;28;20125;-90
2022/05/28 03:50:37;;;;;;;30.17;5.07;;;;;;;18.20;100.00;93989.44;4960069;28;20098;-90
2022/05/28 03:53:03;;;;;;;20.73;4.13;;;;;;;18.49;100.00;93985.91;4946348;28;20389;-90
2022/05/28 03:55:29;;;;;;;21.38;4.07;;;;;;;18.71;100.00;93988.50;4961914;28;20401;-90
2022/05/28 03:58:09;;;;;;;;;;;;;;;;;;;;;
2022/05/28 04:00:36;;;;;;;19.80;4.18;;;;;;;18.78;100.00;93981.56;4943762;29;20038;-89
2022/05/28 04:03:05;;;;;;;25.25;4.47;;;;;;;18.67;100.00;93983.09;4942674;29;20034;-89
2022/05/28 04:05:30;;;;;;;20.00;3.42;;;;;;;18.73;100.00;93989.75;4945945;29;20135;-89
2022/05/28 04:07:56;;;;;;;14.63;3.85;;;;;;;18.61;100.00;93989.69;4942612;29;20110;-89
2022/05/28 04:10:21;;;;;;;18.23;4.55;;;;;;;18.34;100.00;93987.31;4942836;29;20097;-89
2022/05/28 04:12:48;;;;;;;22.52;4.57;;;;;;;18.08;100.00;93990.94;4932166;28;20039;-89
2022/05/28 04:15:14;;;;;;;17.88;4.28;;;;;;;17.91;100.00;93986.50;4961547;28;20030;-89
2022/05/28 04:17:40;;;;;;;18.55;4.50;;;;;;;18.03;100.00;93985.06;4961191;28;20066;-89
2022/05/28 04:20:13;;;;;;;20.90;4.00;;;;;;;18.22;100.00;93987.25;4945832;28;20031;-89
2022/05/28 04:23:14;;;;;;;21.35;4.00;;;;;;;18.42;100.00;93996.28;4961443;28;20081;-91
2022/05/28 04:25:40;;;;;;;21.70;3.50;;;;;;;18.60;94.17;93988.16;4961103;28;20046;-89
2022/05/28 04:28:05;;;;;;;22.80;4.30;;;;;;;18.74;96.10;93988.63;4945676;28;20034;-88
2022/05/28 04:30:31;;;;;;;25.13;4.30;;;;;;;18.86;91.81;93987.88;4945968;28;20039;-90
2022/05/28 04:32:58;;;;;;;29.00;4.40;;;;;;;18.99;93.20;93991.38;4945080;28;20360;-89
2022/05/28 04:35:23;;;;;;;22.40;3.67;;;;;;;19.01;90.35;93983.84;4961207;28;20105;-89
2022/05/28 04:37:49;;;;;;;19.75;3.67;;;;;;;19.01;98.37;93988.38;4960776;28;20026;-90
2022/05/28 04:40:14;;;;;;;18.15;4.53;;;;;;;19.19;96.28;93986.28;4945271;28;20057;-90
2022/05/28 04:42:39;;;;;;;21.05;3.80;;;;;;;19.02;100.00;93982.75;4945196;28;20488;-92
2022/05/28 04:45:08;;;;;;;20.25;3.30;;;;;;;19.17;100.00;93978.69;4945152;28;20031;-91
2022/05/28 04:47:34;;;;;;;18.65;4.00;;;;;;;19.21;100.00;93976.09;4944951;28;20396;-89
2022/05/28 04:49:59;;;;;;;20.13;3.78;;;;;;;19.17;100.00;93967.25;4945218;28;20073;-89
2022/05/28 04:52:25;;;;;;;18.67;4.47;;;;;;;18.92;100.00;93975.16;4945393;28;20022;-89
2022/05/28 04:54:59;;;;;;;22.17;4.35;;;;;;;18.96;100.00;93967.31;4960944;28;20030;-92
2022/05/28 04:57:24;;;;;;;17.88;3.50;;;;;;;19.00;100.00;93963.72;4944459;28;20050;-89
2022/05/28 04:59:53;;;;;;;26.80;4.10;;;;;;;19.16;100.00;93963.06;4944890;28;20399;-89
2022/05/28 05:02:18;;;;;;;20.80;3.95;;;;;;;19.22;100.00;93961.72;4945401;28;20037;-90
2022/05/28 05:04:44;;;;;;;19.65;3.97;;;;;;;18.97;100.00;93956.38;4944732;28;20031;-89
2022/05/28 05:07:09;;;;;;;21.38;3.92;;;;;;;18.70;100.00;93961.22;4945312;28;20037;-89
2022/05/28 05:09:35;;;;;;;32.22;5.03;;;;;;;18.61;100.00;93949.91;4961285;28;20034;-90
2022/05/28 05:12:02;;;;;;;18.67;4.68;;;;;;;18.60;100.00;93964.28;4960582;28;20038;-90
2022/05/28 05:14:28;;;;;;;24.92;4.65;;;;;;;18.72;100.00;93955.56;4944603;28;20034;-91
2022/05/28 05:16:53;;;;;;;19.40;3.95;;;;;;;18.94;100.00;93949.09;4961172;28;20022;-91
2022/05/28 05:19:19;;;;;;;23.23;4.93;;;;;;;19.11;100.00;93944.72;4944795;28;20053;-91
2022/05/28 05:21:44;;;;;;;26.70;5.00;;;;;;;18.97;100.00;93950.28;4944887;28;20034;-90
2022/05/28 05:24:10;;;;;;;20.73;4.32;;;;;;;19.14;100.00;93944.78;4944731;28;20027;-91
2022/05/28 05:26:35;;;;;;;19.05;3.97;;;;;;;19.50;100.00;93945.91;4944906;28;20054;-91
2022/05/28 05:29:00;;;;;;;13.55;4.00;;;;;;;19.76;100.00;93949.28;4944672;28;20145;-90
2022/05/28 05:31:26;;;;;;;18.98;3.92;;;;;;;19.97;100.00;93956.34;4944515;28;20052;-90
2022/05/28 05:33:51;;;;;;;19.73;4.32;;;;;;;19.55;100.00;93946.78;4944552;28;20026;-90
2022/05/28 05:36:17;;;;;;;31.73;5.03;;;;;;;19.42;100.00;93938.06;4944584;28;20022;-91
2022/05/28 05:38:46;;;;;;;24.40;4.47;;;;;;;19.50;100.00;93935.28;4960636;28;20066;-91
2022/05/28 05:41:11;;;;;;;22.80;3.72;;;;;;;19.87;100.00;93942.38;4944609;28;20450;-96
2022/05/28 05:43:40;;;;;;;24.00;4.13;;;;;;;20.30;100.00;93944.72;4961014;28;20027;-95
2022/05/28 05:46:05;;;;;;;23.10;4.47;;;;;;;20.49;100.00;93933.44;4944885;28;20104;-92
2022/05/28 05:48:31;;;;;;;20.08;3.70;;;;;;;20.74;100.00;93943.94;4956670;28;20424;-93
2022/05/28 05:51:07;;;;;;;18.48;3.72;;;;;;;20.98;100.00;93932.38;4977019;28;20030;-90
2022/05/28 05:53:32;;;;;;;22.40;3.97;;;;;;;21.04;100.00;93936.31;4929090;29;20042;-92
2022/05/28 05:55:58;;;;;;;18.75;3.85;;;;;;;21.00;100.00;93929.34;4948903;29;20340;-91
2022/05/28 05:58:23;;;;;;;23.42;3.83;;;;;;;21.20;100.00;93924.88;4960996;29;20062;-92
2022/05/28 06:00:48;;;;;;;15.50;3.95;;;;;;;21.13;100.00;93927.38;4960874;29;20038;-93
2022/05/28 06:03:20;;;;;;;23.35;3.83;;;;;;;21.49;100.00;93922.09;4944843;29;20459;-92
2022/05/28 06:05:45;;;;;;;21.13;4.05;;;;;;;21.46;100.00;93918.22;4961572;29;20035;-93
2022/05/28 06:08:12;;;;;;;19.02;3.78;;;;;;;21.49;100.00;93916.75;4944641;29;20043;-93
2022/05/28 06:10:37;;;;;;;24.90;4.30;;;;;;;21.63;100.00;93916.28;4960738;29;20035;-92
2022/05/28 06:13:03;;;;;;;17.88;3.72;;;;;;;21.55;100.00;93916.13;4944690;28;20348;-93
2022/05/28 06:15:29;;;;;;;17.70;3.72;;;;;;;21.54;100.00;93905.81;4945995;28;20030;-94
2022/05/28 06:17:54;;;;;;;23.65;5.38;;;;;;;21.16;100.00;93905.38;4971104;28;20039;-92
2022/05/28 06:20:20;;;;;;;18.98;4.07;;;;;;;21.36;100.00;93908.88;4928758;29;20042;-92
2022/05/28 06:22:45;;;;;;;25.45;4.43;;;;;;;21.68;100.00;93902.72;4944286;29;20058;-91
2022/05/28 06:25:11;;;;;;;22.73;4.85;;;;;;;21.52;100.00;93906.19;4928475;29;20039;-91
2022/05/28 06:27:36;;;;;;;21.08;4.53;;;;;;;21.65;100.00;93906.03;4928450;29;20043;-92
2022/05/28 06:30:03;;;;;;;16.33;3.70;;;;;;;21.46;100.00;93903.00;4961467;29;20063;-93
2022/05/28 06:32:34;;;;;;;17.83;3.92;;;;;;;21.57;100.00;93894.44;4928096;29;20110;-92
2022/05/28 06:34:59;;;;;;;23.42;4.07;;;;;;;21.95;100.00;93897.50;4944109;29;20063;-92
2022/05/28 06:37:25;;;;;;;22.63;4.72;;;;;;;22.15;100.00;93892.94;4943953;29;20572;-90
2022/05/28 06:39:50;;;;;;;23.92;4.45;;;;;;;22.14;100.00;93889.53;4943943;29;20081;-92
2022/05/28 06:42:16;;;;;;;19.00;4.47;;;;;;;22.42;100.00;93890.38;4944052;29;20170;-92
2022/05/28 06:44:41;;;;;;;23.88;4.07;;;;;;;22.53;100.00;93886.03;4944111;29;20030;-91
2022/05/28 06:47:07;;;;;;;18.83;4.22;;;;;;;22.78;100.00;93888.34;4944079;29;20041;-91
2022/05/28 06:49:32;;;;;;;20.05;4.57;;;;;;;22.15;100.00;93882.28;4943716;29;20042;-91
2022/05/28 06:51:58;;;;;;;22.30;4.07;;;;;;;22.73;100.00;93889.41;4944008;29;20035;-91
2022/05/28 06:54:23;;;;;;;16.80;4.43;;;;;;;22.37;100.00;93891.44;4943661;29;20031;-92
2022/05/28 06:56:52;;;;;;;17.33;3.70;;;;;;;22.90;100.00;93884.72;4927986;29;20023;-92
2022/05/28 06:59:17;;;;;;;18.17;4.22;;;;;;;23.08;100.00;93886.88;4944038;29;20038;-91
2022/05/28 07:02:24;;;;;;;27.35;4.68;;;;;;;23.27;100.00;93883.38;4943422;29;20034;-90
2022/05/28 07:04:52;;;;;;;26.90;4.00;;;;;;;22.99;100.00;93879.13;4943719;29;20035;-91
2022/05/28 07:07:20;;;;;;;24.33;4.15;;;;;;;23.09;100.00;93873.19;4943806;29;20103;-91
2022/05/28 07:09:46;;;;;;;21.02;4.25;;;;;;;23.27;100.00;93876.13;4944003;29;20430;-91
2022/05/28 07:12:11;;;;;;;22.75;4.25;;;;;;;23.56;100.00;93868.50;4943590;29;20034;-91
2022/05/28 07:14:37;;;;;;;21.25;4.45;;;;;;;23.38;100.00;93870.16;4943395;29;20424;-93
2022/05/28 07:17:02;;;;;;;18.23;4.28;;;;;;;23.34;100.00;93869.34;4944060;29;20416;-91
2022/05/28 07:19:29;;;;;;;22.10;4.53;;;;;;;23.62;100.00;93863.63;4943602;29;20042;-91
2022/05/28 07:21:55;;;;;;;19.75;4.22;;;;;;;23.44;100.00;93866.81;4960487;29;20463;-91
2022/05/28 07:24:20;;;;;;;19.98;3.85;;;;;;;23.62;100.00;93866.28;4960400;29;20035;-92
2022/05/28 07:26:50;;;;;;;20.45;5.25;;;;;;;23.65;100.00;93867.44;4960563;29;20121;-92
2022/05/28 07:29:16;;;;;;;30.88;4.53;;;;;;;23.74;100.00;93867.94;4943815;29;20031;-93
2022/05/28 07:31:41;;;;;;;27.60;5.63;;;;;;;23.60;100.00;93859.75;4927532;29;20050;-93
2022/05/28 07:34:06;;;;;;;19.35;4.60;;;;;;;23.62;100.00;93855.59;4960523;29;20035;-92
2022/05/28 07:36:35;;;;;;;19.02;3.88;;;;;;;23.68;100.00;93856.81;4960876;29;20035;-92
2022/05/28 07:39:02;;;;;;;23.40;4.60;;;;;;;23.79;100.00;93851.56;4960295;29;20035;-90
2022/05/28 07:41:27;;;;;;;21.23;4.55;;;;;;;23.79;100.00;93854.25;4960190;29;20042;-92
2022/05/28 07:43:54;;;;;;;21.27;3.95;;;;;;;24.04;100.00;93855.72;4942845;29;20349;-92
2022/05/28 07:46:21;;;;;;;18.10;4.53;;;;;;;24.14;100.00;93850.47;4942863;29;20034;-92
2022/05/28 07:48:47;;;;;;;19.15;4.57;;;;;;;23.97;100.00;93851.03;4927381;29;20134;-94
2022/05/28 07:51:13;;;;;;;21.40;4.90;;;;;;;24.16;100.00;93849.31;4927362;29;20122;-93
2022/05/28 07:53:39;;;;;;;18.65;4.47;;;;;;;24.26;100.00;93846.75;4942993;29;20134;-92
2022/05/28 07:56:05;;;;;;;25.15;4.68;;;;;;;24.50;100.00;93854.59;4959811;29;20397;-90
2022/05/28 07:58:32;;;;;;;15.90;4.28;;;;;;;24.74;100.00;93841.81;4942840;29;20114;-90
2022/05/28 08:00:58;;;;;;;24.10;4.63;;;;;;;24.80;100.00;93841.13;4935704;29;20035;-90
2022/05/28 08:03:23;;;;;;;27.05;5.30;;;;;;;24.86;100.00;93844.22;4942787;29;20041;-90
2022/05/28 08:05:55;;;;;;;21.40;5.38;;;;;;;25.05;100.00;93847.78;4943161;29;20441;-91
2022/05/28 08:08:23;;;;;;;21.42;5.50;;;;;;;24.94;100.00;93837.75;4942925;29;20038;-93
2022/05/28 08:10:49;;;;;;;27.90;6.45;;;;;;;24.77;100.00;93844.56;4942265;29;20027;-90
2022/05/28 08:13:19;;;;;;;24.15;6.18;;;;;;;25.08;100.00;93844.34;4925810;29;20031;-92
2022/05/28 08:15:48;;;;;;;27.70;6.65;;;;;;;25.08;100.00;93842.47;4942371;29;20027;-93
2022/05/28 08:18:23;;;;;;;22.85;5.35;;;;;;;25.33;100.00;93838.38;4959524;29;20062;-93
2022/05/28 08:23:40;;;;;;;21.85;6.38;;;;;;;24.82;100.00;93846.88;4944895;29;20110;-94
2022/05/28 08:26:06;;;;;;;22.55;6.53;;;;;;;24.98;100.00;93843.16;4942842;29;20056;-93
2022/05/28 08:28:31;;;;;;;29.63;7.15;;;;;;;25.04;100.00;93846.25;4959185;29;20035;-92
2022/05/28 08:30:57;;;;;;;24.27;6.30;;;;;;;25.13;100.00;93834.06;4959046;29;20031;-93
2022/05/28 08:33:22;;;;;;;20.67;5.47;;;;;;;25.41;100.00;93834.63;4957941;28;20432;-94
2022/05/28 08:35:50;;;;;;;19.25;5.40;;;;;;;25.47;100.00;93835.03;4944646;28;20026;-93
2022/05/28 08:38:19;;;;;;;23.17;6.00;;;;;;;25.28;100.00;93836.81;4945118;28;20034;-93
2022/05/28 08:40:54;;;;;;;19.35;5.40;;;;;;;25.54;100.00;93827.81;4961313;28;20038;-94
2022/05/28 08:43:23;;;;;;;21.88;6.47;;;;;;;25.51;100.00;93835.84;4961251;28;20035;-93
2022/05/28 08:45:50;;;;;;;25.10;6.72;;;;;;;25.13;100.00;93841.34;4945550;28;20039;-93
2022/05/28 08:48:26;;;;;;;27.33;5.75;;;;;;;25.17;100.00;93844.81;4945115;28;20034;-93
2022/05/28 08:51:00;;;;;;;19.52;5.75;;;;;;;25.32;100.00;93834.16;4961399;28;20034;-93
2022/05/28 08:53:34;;;;;;;27.25;6.88;;;;;;;25.04;100.00;93846.25;4944982;28;20122;-93
2022/05/28 08:55:59;;;;;;;;;;;;;;;25.07;100.00;93843.59;4961441;28;20037;-92
2022/05/28 08:58:27;;;;;;;21.47;7.23;;;;;;;25.45;100.00;93834.59;4944960;28;19909;-93
2022/05/28 09:01:14;;;;;;;22.88;7.80;;;;;;;25.52;100.00;93840.06;4960609;28;20278;-93
2022/05/28 09:04:09;;;;;;;24.50;7.70;;;;;;;25.85;100.00;93838.25;4944762;28;20042;-93
2022/05/28 09:06:41;;;;;;;25.80;7.40;;;;;;;25.85;100.00;93840.19;4960860;28;20093;-94
2022/05/28 09:09:14;;;;;;;26.35;7.85;;;;;;;25.79;100.00;93842.47;4960992;28;20039;-95
2022/05/28 09:11:45;;;;;;;26.23;9.48;;;;;;;25.24;100.00;93847.53;4945304;28;20061;-94
2022/05/28 09:14:20;;;;;;;23.45;9.32;;;;;;;25.46;100.00;93855.69;4944954;28;20031;-94
2022/05/28 09:16:45;;;;;;;29.95;10.05;;;;;;;25.22;100.00;93847.13;4960849;28;20034;-92
2022/05/28 09:19:33;;;;;;;29.50;9.75;;;;;;;24.99;100.00;93850.84;4944477;28;20424;-92
2022/05/28 09:21:58;;;;;;;32.58;9.73;;;;;;;25.37;100.00;93847.22;4944707;28;20428;-93
2022/05/28 09:24:27;;;;;;;29.30;9.20;;;;;;;25.54;100.00;93843.91;4962678;28;20086;-93
2022/05/28 09:27:26;;;;;;;30.33;10.55;;;;;;;25.12;100.00;93848.59;4957993;28;20039;-92
2022/05/28 09:30:25;;;;;;;28.52;11.70;;;;;;;25.07;100.00;93840.16;4965120;28;20356;-94
2022/05/28 09:33:19;;;;;;;28.55;11.25;;;;;;;25.28;100.00;93847.56;4941493;28;20050;-94
2022/05/28 09:35:56;;;;;;;27.70;9.93;;;;;;;25.45;100.00;93840.75;4981585;28;20058;-92
2022/05/28 09:38:30;;;;;;;30.55;10.38;;;;;;;25.44;100.00;93849.94;4964217;28;20162;-94
2022/05/28 09:41:13;;;;;;;29.65;11.65;;;;;;;25.21;100.00;93845.59;4964661;28;20089;-91
2022/05/28 09:43:42;;;;;;;30.75;12.35;;;;;;;25.74;100.00;93838.22;4964805;28;20042;-94
2022/05/28 09:46:18;;;;;;;22.08;10.25;;;;;;;25.92;100.00;93837.50;4981254;28;20451;-93
2022/05/28 09:49:05;;;;;;;39.53;12.60;;;;;;;25.72;100.00;93840.53;4964612;28;20037;-94
2022/05/28 09:51:41;;;;;;;30.25;12.73;;;;;;;26.08;100.00;93837.94;4964110;28;20038;-93
2022/05/28 09:54:18;;;;;;;30.25;11.25;;;;;;;26.46;100.00;93847.63;4949400;28;20034;-90
2022/05/28 09:56:47;;;;;;;25.55;11.05;;;;;;;26.58;100.00;93839.19;4965280;28;20027;-92
2022/05/28 09:59:28;;;;;;;28.05;13.63;;;;;;;26.21;100.00;93840.28;4947999;28;20490;-90
2022/05/28 10:02:07;;;;;;;34.38;11.52;;;;;;;26.45;100.00;93829.97;4981424;28;20038;-91
2022/05/28 10:04:57;;;;;;;42.63;13.18;;;;;;;25.74;100.00;93832.06;4964242;28;20031;-89
2022/05/28 10:07:48;;;;;;;33.55;16.13;;;;;;;25.77;100.00;93836.72;4966175;28;20047;-91
2022/05/28 10:10:26;;;;;;;33.50;15.52;;;;;;;25.57;100.00;93826.28;4965359;28;20045;-90
2022/05/28 10:12:52;;;;;;;33.30;15.27;;;;;;;25.79;100.00;93835.16;4977026;28;20043;-90
2022/05/28 10:15:28;;;;;;;24.85;10.95;;;;;;;26.20;100.00;93826.13;4954876;28;20352;-92
2022/05/28 10:17:57;;;;;;;22.40;13.07;;;;;;;26.39;100.00;93830.34;4963634;28;20077;-91
2022/05/28 10:20:23;;;;;;;29.60;14.77;;;;;;;26.41;100.00;93829.97;4963576;28;20356;-91
2022/05/28 10:22:52;;;;;;;31.80;12.10;;;;;;;26.66;100.00;93823.84;4947803;28;20027;-90
2022/05/28 10:25:32;;;;;;;30.35;12.55;;;;;;;26.57;100.00;93829.59;4947531;28;20483;-92
2022/05/28 10:27:58;;;;;;;31.35;13.48;;;;;;;26.92;100.00;93822.72;4963800;28;20429;-90
2022/05/28 10:30:26;;;;;;;32.22;11.65;;;;;;;26.93;100.00;93821.56;4947216;28;20037;-91
2022/05/28 10:36:28;;;;;;;41.85;15.35;;;;;;;26.25;100.00;93806.16;4979633;28;20034;-90
2022/05/28 10:39:13;;;;;;;39.38;14.77;;;;;;;26.28;100.00;93804.63;4980634;28;20058;-90
2022/05/28 10:41:40;;;;;;;33.40;14.75;;;;;;;26.50;100.00;93800.84;4962768;28;20030;-91
2022/05/28 10:44:06;;;;;;;34.97;15.77;;;;;;;26.43;100.00;93808.13;4947354;28;20038;-92
2022/05/28 10:47:00;;;;;;;27.25;12.32;;;;;;;26.68;100.00;93802.75;4962937;28;20039;-89
2022/05/28 10:49:44;;;;;;;37.83;16.13;;;;;;;26.14;100.00;93802.69;4963250;28;20081;-93
2022/05/28 10:52:28;;;;;;;28.45;12.70;;;;;;;26.57;100.00;93802.75;4963590;28;20321;-91
2022/05/28 10:55:10;;;;;;;;;;;;;;;25.65;100.00;93797.56;4963489;28;20035;-91
2022/05/28 10:57:57;;;;;;;29.05;13.85;;;;;;;26.45;100.00;93797.75;4980145;28;19916;-91
2022/05/28 11:00:35;;;;;;;29.17;15.73;;;;;;;26.40;100.00;93782.78;4980019;28;20053;-91
2022/05/28 11:03:25;;;;;;;32.65;13.45;;;;;;;26.44;100.00;93774.75;4963203;28;20031;-89
2022/05/28 11:06:15;;;;;;;31.10;15.45;;;;;;;26.48;100.00;93775.50;4979908;28;20123;-90
2022/05/28 11:09:08;;;;;;;40.33;15.00;;;;;;;26.18;100.00;93784.69;4962966;28;20108;-91
2022/05/28 11:12:01;;;;;;;33.80;12.75;;;;;;;26.13;100.00;93785.81;4975727;28;20125;-91
2022/05/28 11:15:07;;;;;;;33.78;13.70;;;;;;;26.48;100.00;93772.81;4973087;28;20031;-91
2022/05/28 11:18:11;;;;;;;30.55;12.18;;;;;;;27.08;100.00;93773.91;4930326;29;20344;-91
2022/05/28 11:21:01;;;;;;;34.22;13.15;;;;;;;26.76;100.00;93768.56;4943767;29;20042;-90
2022/05/28 11:23:30;;;;;;;33.20;12.50;;;;;;;27.37;100.00;93759.59;4943374;29;20031;-90
2022/05/28 11:26:35;;;;;;;26.20;10.00;;;;;;;27.09;100.00;93763.91;4943235;29;20086;-88
2022/05/28 11:29:26;;;;;;;27.35;11.85;;;;;;;25.68;100.00;93753.91;4897366;29;20047;-90
2022/05/28 11:32:12;;;;;;;26.55;11.50;;;;;;;24.95;100.00;93750.88;4944195;29;20049;-90
2022/05/28 11:34:41;;;;;;;29.10;12.13;;;;;;;24.75;100.00;93744.25;4937025;28;20063;-89
2022/05/28 11:37:11;;;;;;;30.30;12.63;;;;;;;24.65;100.00;93735.00;4960080;28;20040;-88
2022/05/28 11:39:43;;;;;;;39.08;15.20;;;;;;;24.31;100.00;93727.09;4946730;28;20030;-88
2022/05/28 11:42:33;;;;;;;38.70;15.02;;;;;;;23.99;100.00;93728.34;4962637;28;20041;-93